Time;durP1;ratioP1;P1;durP2;ratioP2;P2;SDS_P1;SDS_P2;PMS_P1;PMS_P2;Temp;Humidity;BMP_temperature;BMP_pressure;BME280_temperature;BME280_humidity;BME280_pressure;Samples;Min_cycle;Max_cycle;Signal;HPM_P1;HPM_P2
2022/12/26 00:01:06;;;;;;;;;;;11.50;99.90;;;;;;5101599;28;19928;-69
2022/12/26 00:03:32;;;;;;;;;;;11.50;99.90;;;;;;5110208;28;19977;-68
2022/12/26 00:05:58;;;;;;;;;;;11.40;99.90;;;;;;5065473;28;19916;-68
2022/12/26 00:08:23;;;;;;;;;;;11.30;99.90;;;;;;5104473;28;19915;-68
2022/12/26 00:10:49;;;;;;;;;;;11.30;99.90;;;;;;5087619;28;20549;-69
2022/12/26 00:13:15;;;;;;;;;;;11.20;99.90;;;;;;5086325;28;20380;-69
2022/12/26 00:15:41;;;;;;;;;;;11.20;99.90;;;;;;5090399;28;19923;-70
2022/12/26 00:18:07;;;;;;;;;;;11.20;99.90;;;;;;5088928;28;19916;-68
2022/12/26 00:20:32;;;;;;;;;;;11.10;99.90;;;;;;5089032;28;20240;-70
2022/12/26 00:23:01;;;;;;;;;;;11.10;99.90;;;;;;5096305;28;19915;-68
2022/12/26 00:25:27;;;;;;;;;;;11.00;99.90;;;;;;5085921;28;20643;-67
2022/12/26 00:27:53;;;;;;;;;;;11.00;99.90;;;;;;5110717;28;19915;-68
2022/12/26 00:30:18;;;;;;;;;;;11.00;99.90;;;;;;5108475;28;19930;-69
2022/12/26 00:32:44;;;;;;;;;;;11.10;99.90;;;;;;5109901;28;20226;-68
2022/12/26 00:35:09;;;;;;;;;;;11.00;99.90;;;;;;5100532;28;19915;-67
2022/12/26 00:37:35;;;;;;;;;;;11.00;99.90;;;;;;5080395;28;19977;-69
2022/12/26 00:40:01;;;;;;;;;;;11.00;99.90;;;;;;5082646;28;19971;-68
2022/12/26 00:42:27;;;;;;;;;;;11.00;99.90;;;;;;5089899;28;19998;-70
2022/12/26 00:44:53;;;;;;;;;;;11.00;99.90;;;;;;5078577;28;19923;-68
2022/12/26 00:47:18;;;;;;;;;;;11.00;99.90;;;;;;5090308;28;19916;-68
2022/12/26 00:49:44;;;;;;;;;;;10.90;99.90;;;;;;5071695;28;19922;-68
2022/12/26 00:52:10;;;;;;;;;;;10.90;99.90;;;;;;5091828;28;19917;-68
2022/12/26 00:54:36;;;;;;;;;;;10.90;99.90;;;;;;5092568;28;20327;-69
2022/12/26 00:57:01;;;;;;;;;;;10.90;99.90;;;;;;5101356;28;19920;-69
2022/12/26 00:59:36;;;;;;;;;;;10.80;99.90;;;;;;5087628;28;19938;-68
2022/12/26 01:02:36;;;;;;;;;;;10.80;99.90;;;;;;5083132;28;19920;-69
2022/12/26 01:04:47;;;;;;;;;;;10.80;99.90;;;;;;5099508;28;20465;-69
2022/12/26 01:07:14;;;;;;;;;;;10.70;99.90;;;;;;5083761;28;19988;-69
2022/12/26 01:09:40;;;;;;;;;;;10.80;99.90;;;;;;5103682;28;19919;-69
2022/12/26 01:12:06;;;;;;;;;;;10.70;99.90;;;;;;5109088;28;19916;-70
2022/12/26 01:14:31;;;;;;;;;;;10.70;99.90;;;;;;5091269;28;19943;-67
2022/12/26 01:17:05;;;;;;;;;;;10.70;99.90;;;;;;5081169;28;20219;-68
2022/12/26 01:19:30;;;;;;;;;;;10.70;99.90;;;;;;5090764;28;19927;-69
2022/12/26 01:21:56;;;;;;;;;;;10.70;99.90;;;;;;5094375;28;19919;-69
2022/12/26 01:24:22;;;;;;;;;;;10.70;99.90;;;;;;5092704;28;19916;-67
2022/12/26 01:26:47;;;;;;;;;;;10.70;99.90;;;;;;5094637;28;19923;-68
2022/12/26 01:29:13;;;;;;;;;;;10.70;99.90;;;;;;5110469;28;19915;-66
2022/12/26 01:31:38;;;;;;;;;;;10.60;99.90;;;;;;5105964;28;19919;-67
2022/12/26 01:34:04;;;;;;;;;;;10.60;99.90;;;;;;5099297;28;19916;-67
2022/12/26 01:36:30;;;;;;;;;;;10.60;99.90;;;;;;5088488;28;20860;-70
2022/12/26 01:38:56;;;;;;;;;;;10.60;99.90;;;;;;5091475;28;20601;-71
2022/12/26 01:41:22;;;;;;;;;;;10.60;99.90;;;;;;5071829;28;19913;-70
2022/12/26 01:43:48;;;;;;;;;;;10.60;99.90;;;;;;5093019;28;19912;-71
2022/12/26 01:46:15;;;;;;;;;;;10.60;99.90;;;;;;5072399;28;19916;-70
2022/12/26 01:48:40;;;;;;;;;;;10.60;99.90;;;;;;5070573;28;19948;-70
2022/12/26 01:51:06;;;;;;;;;;;10.60;99.90;;;;;;5081149;28;20009;-71
2022/12/26 01:53:38;;;;;;;;;;;10.60;99.90;;;;;;5082568;28;20264;-71
2022/12/26 01:56:04;;;;;;;;;;;10.60;99.90;;;;;;5076917;28;19917;-72
2022/12/26 01:58:31;;;;;;;;;;;10.60;99.90;;;;;;5088127;28;19930;-71
2022/12/26 02:00:56;;;;;;;;;;;10.60;99.90;;;;;;5086912;28;19927;-72
2022/12/26 02:06:06;;;;;;;;;;;10.60;99.90;;;;;;5088998;28;19916;-72
2022/12/26 02:08:33;;;;;;;;;;;10.50;99.90;;;;;;5094220;28;19916;-72
2022/12/26 02:11:05;;;;;;;;;;;10.60;99.90;;;;;;5085943;28;19920;-72
2022/12/26 02:13:30;;;;;;;;;;;10.60;99.90;;;;;;5088043;28;19924;-72
2022/12/26 02:15:59;;;;;;;;;;;10.50;99.90;;;;;;5068173;28;19917;-71
2022/12/26 02:18:25;;;;;;;;;;;10.50;99.90;;;;;;5091626;28;19920;-72
2022/12/26 02:20:57;;;;;;;;;;;10.60;99.90;;;;;;5108524;28;19927;-72
2022/12/26 02:23:22;;;;;;;;;;;10.50;99.90;;;;;;5099495;28;19927;-72
2022/12/26 02:26:03;;;;;;;;;;;10.50;99.90;;;;;;5091663;28;20246;-72
2022/12/26 02:28:47;;;;;;;;;;;10.60;99.90;;;;;;5092490;28;19924;-72
2022/12/26 02:31:25;;;;;;;;;;;10.50;99.90;;;;;;5095857;28;19916;-72
2022/12/26 02:34:11;;;;;;;;;;;10.60;99.90;;;;;;5100223;28;19965;-72
2022/12/26 02:36:37;;;;;;;;;;;10.60;99.90;;;;;;5102317;28;19927;-72
2022/12/26 02:39:02;;;;;;;;;;;10.60;99.90;;;;;;5086881;28;19928;-72
2022/12/26 02:41:54;;;;;;;;;;;10.60;99.90;;;;;;5092042;28;20007;-72
2022/12/26 02:47:19;;;;;;;;;;;10.60;99.90;;;;;;5089226;28;19953;-72
2022/12/26 03:15:11;;;;;;;;;;;10.60;99.90;;;;;;5088540;28;19923;-72
2022/12/26 03:17:38;;;;;;;;;;;10.60;99.90;;;;;;5108329;28;19916;-72
2022/12/26 03:20:13;;;;;;;;;;;10.60;99.90;;;;;;5092098;28;19919;-72
2022/12/26 03:22:40;;;;;;;;;;;10.60;99.90;;;;;;5082111;28;20007;-72
2022/12/26 03:27:53;;;;;;;;;;;10.60;99.90;;;;;;5096157;28;20333;-72
2022/12/26 03:33:04;;;;;;;;;;;10.60;99.90;;;;;;5112880;28;19927;-72
2022/12/26 03:35:30;;;;;;;;;;;10.60;99.90;;;;;;5097984;28;19916;-72
2022/12/26 03:37:58;;;;;;;;;;;10.60;99.90;;;;;;5073545;28;19924;-72
2022/12/26 04:20:20;;;;;;;;;;;10.60;99.90;;;;;;5098379;28;20241;-71
2022/12/26 04:45:13;;;;;;;;;;;10.40;99.90;;;;;;5105544;28;19915;-72
2022/12/26 04:50:10;;;;;;;;;;;10.30;99.90;;;;;;5105719;28;19958;-71
2022/12/26 04:50:24;;;;;;;;;;;10.30;99.90;;;;;;5096386;28;19915;-71
2022/12/26 04:52:59;;;;;;;;;;;10.30;99.90;;;;;;5100100;28;20398;-71
2022/12/26 04:55:28;;;;;;;;;;;10.30;99.90;;;;;;5063941;28;19966;-71
2022/12/26 04:57:54;;;;;;;;;;;10.20;99.90;;;;;;5106375;28;19977;-71
2022/12/26 05:00:20;;;;;;;;;;;10.30;99.90;;;;;;5110731;28;19920;-71
2022/12/26 05:11:36;;;;;;;;;;;10.20;99.90;;;;;;5090414;28;19920;-71
2022/12/26 05:14:02;;;;;;;;;;;10.20;99.90;;;;;;5109479;28;19969;-71
2022/12/26 05:30:12;;;;;;;;;;;10.10;99.90;;;;;;5102616;28;20394;-71
2022/12/26 05:35:22;;;;;;;;;;;10.10;99.90;;;;;;5090328;28;20548;-71
2022/12/26 05:37:48;;;;;;;;;;;10.10;99.90;;;;;;5092625;28;19916;-71
2022/12/26 05:40:13;;;;;;;;;;;10.20;99.90;;;;;;5086783;28;19924;-71
2022/12/26 05:42:39;;;;;;;;;;;10.20;99.90;;;;;;5080233;28;20338;-71
2022/12/26 05:45:07;;;;;;;;;;;10.20;99.90;;;;;;5082431;28;19923;-71
2022/12/26 05:47:33;;;;;;;;;;;10.20;99.90;;;;;;5109846;28;19915;-71
2022/12/26 05:49:59;;;;;;;;;;;10.20;99.90;;;;;;5090295;28;19916;-70
2022/12/26 05:52:25;;;;;;;;;;;10.30;99.90;;;;;;5083143;28;19923;-71
2022/12/26 05:54:50;;;;;;;;;;;10.30;99.90;;;;;;5089873;28;19916;-71
2022/12/26 05:57:16;;;;;;;;;;;10.30;99.90;;;;;;5097556;28;20599;-71
2022/12/26 05:59:42;;;;;;;;;;;10.30;99.90;;;;;;5089764;28;20660;-71
2022/12/26 06:02:07;;;;;;;;;;;10.30;99.90;;;;;;5088837;28;20249;-71
2022/12/26 06:04:35;;;;;;;;;;;10.30;99.90;;;;;;5092036;28;19916;-71
2022/12/26 06:07:01;;;;;;;;;;;10.30;99.90;;;;;;5109287;28;19916;-71
2022/12/26 06:09:26;;;;;;;;;;;10.20;99.90;;;;;;5086267;28;19916;-71
2022/12/26 06:11:52;;;;;;;;;;;10.30;99.90;;;;;;5095217;28;20395;-71
2022/12/26 06:14:18;;;;;;;;;;;10.30;99.90;;;;;;5109374;28;20639;-71
2022/12/26 06:16:43;;;;;;;;;;;10.20;99.90;;;;;;5095466;28;19919;-71
2022/12/26 06:19:09;;;;;;;;;;;10.20;99.90;;;;;;5099151;28;20249;-71
2022/12/26 06:21:35;;;;;;;;;;;10.20;99.90;;;;;;5081063;28;20325;-70
2022/12/26 06:24:01;;;;;;;;;;;10.20;99.90;;;;;;5096124;28;20278;-71
2022/12/26 06:26:27;;;;;;;;;;;10.20;99.90;;;;;;5078492;28;19973;-71
2022/12/26 06:28:53;;;;;;;;;;;10.20;99.90;;;;;;5094005;28;19916;-71
2022/12/26 06:31:19;;;;;;;;;;;10.20;99.90;;;;;;5094719;28;19927;-71
2022/12/26 06:33:45;;;;;;;;;;;10.20;99.90;;;;;;5085573;28;19923;-71
2022/12/26 06:36:14;;;;;;;;;;;10.20;99.90;;;;;;5109264;28;19926;-71
2022/12/26 06:38:39;;;;;;;;;;;10.20;99.90;;;;;;5091790;28;20536;-71
2022/12/26 06:41:06;;;;;;;;;;;10.10;99.90;;;;;;5091796;28;19916;-71
2022/12/26 06:43:31;;;;;;;;;;;10.20;99.90;;;;;;5088617;28;19920;-72
2022/12/26 06:45:57;;;;;;;;;;;10.10;99.90;;;;;;5102415;28;19915;-72
2022/12/26 06:48:23;;;;;;;;;;;10.10;99.90;;;;;;5083165;28;19916;-72
2022/12/26 06:50:49;;;;;;;;;;;10.10;99.90;;;;;;5106447;28;19919;-71
2022/12/26 06:53:14;;;;;;;;;;;10.10;99.90;;;;;;5114065;28;19926;-71
2022/12/26 06:55:40;;;;;;;;;;;10.10;99.90;;;;;;5094050;28;20382;-71
2022/12/26 06:58:06;;;;;;;;;;;10.10;99.90;;;;;;5080858;28;19916;-71
2022/12/26 07:00:32;;;;;;;;;;;10.10;99.90;;;;;;5106318;28;20362;-72
2022/12/26 07:02:57;;;;;;;;;;;10.10;99.90;;;;;;5108501;28;20490;-71
2022/12/26 07:05:23;;;;;;;;;;;10.10;99.90;;;;;;5112018;28;20249;-72
2022/12/26 07:07:49;;;;;;;;;;;10.10;99.90;;;;;;5107162;28;19922;-72
2022/12/26 07:10:15;;;;;;;;;;;10.10;99.90;;;;;;5094434;28;19916;-71
2022/12/26 07:12:40;;;;;;;;;;;10.10;99.90;;;;;;5109945;28;19927;-71
2022/12/26 07:15:08;;;;;;;;;;;10.10;99.90;;;;;;5092637;28;20344;-71
2022/12/26 07:17:35;;;;;;;;;;;10.10;99.90;;;;;;5078498;28;19967;-71
2022/12/26 07:20:01;;;;;;;;;;;10.10;99.90;;;;;;5101022;28;20033;-71
2022/12/26 07:22:27;;;;;;;;;;;10.10;99.90;;;;;;5084919;28;20329;-71
2022/12/26 07:24:52;;;;;;;;;;;10.10;99.90;;;;;;5108512;28;19926;-71
2022/12/26 07:27:18;;;;;;;;;;;10.10;99.90;;;;;;5099870;28;20279;-71
2022/12/26 07:29:45;;;;;;;;;;;10.00;99.90;;;;;;5111207;28;19912;-71
2022/12/26 07:32:10;;;;;;;;;;;10.00;99.90;;;;;;5099809;28;19968;-71
2022/12/26 07:34:36;;;;;;;;;;;10.00;99.90;;;;;;5091941;28;19916;-71
2022/12/26 07:37:02;;;;;;;;;;;10.00;99.90;;;;;;5097485;28;19920;-71
2022/12/26 07:39:27;;;;;;;;;;;10.00;99.90;;;;;;5094476;28;19923;-70
2022/12/26 07:41:56;;;;;;;;;;;10.10;99.90;;;;;;5112037;28;20006;-71
2022/12/26 07:44:22;;;;;;;;;;;10.00;99.90;;;;;;5092680;28;20007;-71
2022/12/26 07:46:47;;;;;;;;;;;10.00;99.90;;;;;;5087723;28;19998;-70
2022/12/26 07:49:13;;;;;;;;;;;10.00;99.90;;;;;;5103845;28;19916;-71
2022/12/26 07:51:39;;;;;;;;;;;10.00;99.90;;;;;;5090029;28;19946;-71
2022/12/26 07:54:04;;;;;;;;;;;10.00;99.90;;;;;;5097498;28;19916;-71
2022/12/26 07:56:30;;;;;;;;;;;10.00;99.90;;;;;;5064405;28;19916;-72
2022/12/26 07:58:56;;;;;;;;;;;9.90;99.90;;;;;;5073745;28;19923;-71
2022/12/26 08:01:22;;;;;;;;;;;10.00;99.90;;;;;;5107491;28;19922;-71
2022/12/26 08:03:48;;;;;;;;;;;10.00;99.90;;;;;;5087645;28;19915;-71
2022/12/26 08:06:13;;;;;;;;;;;10.00;99.90;;;;;;5070418;28;19977;-71
2022/12/26 08:08:39;;;;;;;;;;;9.90;99.90;;;;;;5076866;28;19916;-71
2022/12/26 08:11:05;;;;;;;;;;;9.90;99.90;;;;;;5083271;28;20279;-73
2022/12/26 08:13:31;;;;;;;;;;;9.90;99.90;;;;;;5101068;28;19948;-72
2022/12/26 08:15:57;;;;;;;;;;;9.90;99.90;;;;;;5093801;28;19994;-71
2022/12/26 08:18:23;;;;;;;;;;;9.90;99.90;;;;;;5080551;28;20384;-71
2022/12/26 08:20:49;;;;;;;;;;;9.90;99.90;;;;;;5103898;28;19977;-70
2022/12/26 08:23:14;;;;;;;;;;;9.90;99.90;;;;;;5084346;28;20296;-72
2022/12/26 08:25:40;;;;;;;;;;;9.90;99.90;;;;;;5086494;28;19916;-71
2022/12/26 08:28:06;;;;;;;;;;;9.90;99.90;;;;;;5090630;28;20249;-71
2022/12/26 08:30:32;;;;;;;;;;;9.90;99.90;;;;;;5080754;28;19954;-71
2022/12/26 08:32:57;;;;;;;;;;;9.90;99.90;;;;;;5076723;28;20388;-71
2022/12/26 08:35:23;;;;;;;;;;;9.90;99.90;;;;;;5103061;28;19947;-71
2022/12/26 08:37:48;;;;;;;;;;;9.90;99.90;;;;;;5091888;28;19920;-71
2022/12/26 08:40:14;;;;;;;;;;;9.90;99.90;;;;;;5076592;28;19966;-71
2022/12/26 08:42:40;;;;;;;;;;;9.90;99.90;;;;;;5097028;28;20345;-71
2022/12/26 08:45:06;;;;;;;;;;;9.90;99.90;;;;;;5101887;28;19981;-71
2022/12/26 08:47:31;;;;;;;;;;;9.90;99.90;;;;;;5108933;28;19915;-72
2022/12/26 08:49:57;;;;;;;;;;;9.90;99.90;;;;;;5106632;28;19930;-72
2022/12/26 08:52:23;;;;;;;;;;;9.90;99.90;;;;;;5096591;28;19991;-71
2022/12/26 08:54:48;;;;;;;;;;;9.90;99.90;;;;;;5090686;28;19926;-72
2022/12/26 08:57:14;;;;;;;;;;;9.90;99.90;;;;;;5085775;28;19959;-71
2022/12/26 08:59:40;;;;;;;;;;;9.90;99.90;;;;;;5089938;28;19919;-71
2022/12/26 09:02:06;;;;;;;;;;;9.90;99.90;;;;;;5092207;28;19930;-70
2022/12/26 09:04:31;;;;;;;;;;;9.90;99.90;;;;;;5093304;28;19989;-71
2022/12/26 09:06:57;;;;;;;;;;;9.90;99.90;;;;;;5105629;28;19916;-71
2022/12/26 09:09:22;;;;;;;;;;;9.90;99.90;;;;;;5101707;28;19915;-73
2022/12/26 09:11:48;;;;;;;;;;;9.90;99.90;;;;;;5096113;28;19983;-73
2022/12/26 09:14:14;;;;;;;;;;;9.90;99.90;;;;;;5088509;28;19923;-67
2022/12/26 09:16:45;;;;;;;;;;;9.90;99.90;;;;;;5093379;28;19916;-66
2022/12/26 09:19:11;;;;;;;;;;;9.90;99.90;;;;;;5079248;28;19928;-68
2022/12/26 09:21:37;;;;;;;;;;;9.90;99.90;;;;;;5080870;28;19946;-68
2022/12/26 09:24:04;;;;;;;;;;;9.90;99.90;;;;;;5106625;28;19916;-69
2022/12/26 09:26:29;;;;;;;;;;;9.90;99.90;;;;;;5082862;28;19955;-67
2022/12/26 09:28:55;;;;;;;;;;;9.90;99.90;;;;;;5088985;28;19951;-66
2022/12/26 09:31:23;;;;;;;;;;;9.90;99.90;;;;;;5093258;28;19916;-68
2022/12/26 09:33:49;;;;;;;;;;;9.90;99.90;;;;;;5094107;28;20938;-67
2022/12/26 09:36:18;;;;;;;;;;;9.90;99.90;;;;;;5068038;28;19916;-67
2022/12/26 09:38:44;;;;;;;;;;;10.00;99.90;;;;;;5101560;28;19966;-67
2022/12/26 09:41:18;;;;;;;;;;;10.00;99.90;;;;;;5106499;28;20263;-67
2022/12/26 09:43:49;;;;;;;;;;;10.00;99.90;;;;;;5106704;28;19927;-66
2022/12/26 09:46:24;;;;;;;;;;;10.00;99.90;;;;;;5099082;28;19919;-67
2022/12/26 09:49:04;;;;;;;;;;;10.00;99.90;;;;;;5091378;28;19915;-67
2022/12/26 09:51:31;;;;;;;;;;;10.00;99.90;;;;;;5102421;28;20248;-67
2022/12/26 09:53:57;;;;;;;;;;;10.00;99.90;;;;;;5088665;28;19938;-69
2022/12/26 09:56:22;;;;;;;;;;;10.10;99.90;;;;;;5079304;28;19916;-69
2022/12/26 09:58:49;;;;;;;;;;;10.20;99.90;;;;;;5092319;28;20394;-69
2022/12/26 10:01:16;;;;;;;;;;;10.30;99.90;;;;;;5081823;28;19985;-70
2022/12/26 10:03:51;;;;;;;;;;;10.60;99.90;;;;;;5075549;28;20034;-70
2022/12/26 10:06:24;;;;;;;;;;;10.50;99.90;;;;;;5098609;28;19919;-69
2022/12/26 10:08:53;;;;;;;;;;;10.50;99.90;;;;;;5098221;28;20016;-70
2022/12/26 10:11:21;;;;;;;;;;;10.60;99.90;;;;;;5103301;28;19998;-70
2022/12/26 10:13:53;;;;;;;;;;;10.60;99.90;;;;;;5092345;28;19912;-70
2022/12/26 10:16:24;;;;;;;;;;;10.60;99.90;;;;;;5083089;28;19917;-70
2022/12/26 10:18:50;;;;;;;;;;;10.70;99.90;;;;;;5085307;28;20628;-69
2022/12/26 10:21:28;;;;;;;;;;;10.70;99.90;;;;;;5079652;28;19912;-70
2022/12/26 10:23:54;;;;;;;;;;;10.80;99.90;;;;;;5088470;28;19916;-70
2022/12/26 10:26:28;;;;;;;;;;;10.80;99.90;;;;;;5090390;28;19919;-70
2022/12/26 10:29:11;;;;;;;;;;;10.80;99.90;;;;;;5092846;28;19912;-70
2022/12/26 10:31:37;;;;;;;;;;;10.80;99.90;;;;;;5085192;28;19915;-69
2022/12/26 10:34:21;;;;;;;;;;;10.90;99.90;;;;;;5092923;28;19916;-69
2022/12/26 10:36:48;;;;;;;;;;;10.80;99.90;;;;;;5105605;28;20006;-69
2022/12/26 10:39:19;;;;;;;;;;;10.80;99.90;;;;;;5089473;28;20400;-69
2022/12/26 10:41:45;;;;;;;;;;;10.80;99.90;;;;;;5105272;28;19927;-69
2022/12/26 10:44:11;;;;;;;;;;;10.80;99.90;;;;;;5078480;28;19942;-69
2022/12/26 10:46:46;;;;;;;;;;;10.80;99.90;;;;;;5093958;28;19916;-70
2022/12/26 10:49:12;;;;;;;;;;;10.80;99.90;;;;;;5079623;28;19946;-70
2022/12/26 10:51:38;;;;;;;;;;;10.90;99.90;;;;;;5096617;28;19912;-71
2022/12/26 10:54:08;;;;;;;;;;;11.00;99.90;;;;;;5091362;28;19916;-70
2022/12/26 10:56:34;;;;;;;;;;;11.10;99.90;;;;;;5062876;28;19915;-69
2022/12/26 10:59:02;;;;;;;;;;;11.10;99.90;;;;;;5089430;28;21329;-68
2022/12/26 11:01:28;;;;;;;;;;;11.10;99.90;;;;;;5061534;28;20035;-69
2022/12/26 11:03:54;;;;;;;;;;;11.00;99.90;;;;;;5088335;28;20003;-68
2022/12/26 11:06:19;;;;;;;;;;;10.80;99.90;;;;;;5077460;28;19920;-69
2022/12/26 11:08:48;;;;;;;;;;;10.80;99.90;;;;;;5086672;28;20311;-67
2022/12/26 11:11:51;;;;;;;;;;;10.80;99.90;;;;;;5063081;28;20324;-67
2022/12/26 11:14:22;;;;;;;;;;;10.70;99.90;;;;;;5095505;28;19954;-69
2022/12/26 11:16:49;;;;;;;;;;;10.80;99.90;;;;;;5074847;28;19921;-68
2022/12/26 11:19:27;;;;;;;;;;;10.80;99.90;;;;;;5078294;28;19931;-66
2022/12/26 11:21:53;;;;;;;;;;;10.70;99.90;;;;;;5094632;28;20333;-66
2022/12/26 11:24:19;;;;;;;;;;;10.70;99.90;;;;;;5103525;28;19915;-66
2022/12/26 11:26:44;;;;;;;;;;;10.70;99.90;;;;;;5081915;28;19916;-67
2022/12/26 11:29:14;;;;;;;;;;;10.80;99.90;;;;;;5092691;28;19920;-65
2022/12/26 11:31:40;;;;;;;;;;;11.00;99.90;;;;;;5092053;28;20012;-67
2022/12/26 11:34:06;;;;;;;;;;;11.60;99.90;;;;;;5068245;28;19940;-67
2022/12/26 11:36:33;;;;;;;;;;;12.10;99.90;;;;;;5096860;28;19924;-67
2022/12/26 11:38:59;;;;;;;;;;;12.40;99.90;;;;;;5110822;28;19929;-67
2022/12/26 11:41:31;;;;;;;;;;;12.90;99.90;;;;;;5105494;28;19920;-65
2022/12/26 11:44:12;;;;;;;;;;;12.70;99.90;;;;;;5097264;28;19923;-67
2022/12/26 11:46:47;;;;;;;;;;;12.90;99.90;;;;;;5100326;28;20433;-67
2022/12/26 11:49:19;;;;;;;;;;;13.10;99.90;;;;;;5106257;28;19965;-66
2022/12/26 11:51:45;;;;;;;;;;;12.50;99.90;;;;;;5112071;28;19992;-66
2022/12/26 11:54:31;;;;;;;;;;;12.30;99.90;;;;;;5087159;28;20346;-66
2022/12/26 11:57:00;;;;;;;;;;;12.20;99.90;;;;;;5104233;28;20006;-66
2022/12/26 11:59:25;;;;;;;;;;;12.10;99.90;;;;;;5111638;28;20310;-65
2022/12/26 12:02:11;;;;;;;;;;;11.80;99.90;;;;;;5080583;28;19915;-67
2022/12/26 12:04:37;;;;;;;;;;;11.90;99.90;;;;;;5103381;28;19926;-67
2022/12/26 12:07:05;;;;;;;;;;;11.70;99.90;;;;;;5098255;28;19916;-65
2022/12/26 12:09:37;;;;;;;;;;;11.60;99.90;;;;;;5077026;28;20337;-67
2022/12/26 12:12:17;;;;;;;;;;;11.50;99.90;;;;;;5107811;28;19915;-66
2022/12/26 12:14:49;;;;;;;;;;;11.50;99.90;;;;;;5074084;28;19926;-66
2022/12/26 12:17:23;;;;;;;;;;;11.30;99.90;;;;;;5108132;28;19920;-67
2022/12/26 12:19:59;;;;;;;;;;;11.30;99.90;;;;;;5091946;28;19919;-66
2022/12/26 12:22:28;;;;;;;;;;;11.30;99.90;;;;;;5072964;28;20397;-67
2022/12/26 12:25:12;;;;;;;;;;;11.20;99.90;;;;;;5107651;28;20439;-66
2022/12/26 12:27:41;;;;;;;;;;;11.20;99.90;;;;;;5104718;28;19920;-66
2022/12/26 12:30:09;;;;;;;;;;;11.20;99.90;;;;;;5076509;28;19968;-65
2022/12/26 12:32:52;;;;;;;;;;;11.20;99.90;;;;;;5105854;28;19916;-68
2022/12/26 12:35:33;;;;;;;;;;;11.20;99.90;;;;;;5093620;28;20269;-66
2022/12/26 12:38:04;;;;;;;;;;;11.20;99.90;;;;;;5103528;28;20358;-66
2022/12/26 12:40:32;;;;;;;;;;;11.20;99.90;;;;;;5110620;28;19924;-67
2022/12/26 12:43:15;;;;;;;;;;;11.20;99.90;;;;;;5080530;28;19950;-69
2022/12/26 12:45:44;;;;;;;;;;;11.20;99.90;;;;;;5103800;27;19926;-68
2022/12/26 12:48:29;;;;;;;;;;;11.20;99.90;;;;;;5083759;28;20028;-68
2022/12/26 12:50:58;;;;;;;;;;;11.30;99.90;;;;;;5093672;28;19969;-69
2022/12/26 12:53:37;;;;;;;;;;;11.30;99.90;;;;;;5089877;28;19916;-69
2022/12/26 12:56:14;;;;;;;;;;;11.70;99.90;;;;;;5084363;28;19917;-68
2022/12/26 12:58:54;;;;;;;;;;;11.70;99.90;;;;;;5109705;28;19912;-68
2022/12/26 13:01:24;;;;;;;;;;;11.50;99.90;;;;;;5090042;28;19997;-68
2022/12/26 13:03:55;;;;;;;;;;;11.50;99.90;;;;;;5110553;28;20010;-69
2022/12/26 13:06:22;;;;;;;;;;;11.40;99.90;;;;;;5078556;28;19938;-66
2022/12/26 13:08:53;;;;;;;;;;;11.40;99.90;;;;;;5090581;28;20009;-68
2022/12/26 13:11:18;;;;;;;;;;;11.30;99.90;;;;;;5088706;28;19915;-67
2022/12/26 13:13:46;;;;;;;;;;;11.30;99.90;;;;;;5104849;28;19927;-66
2022/12/26 13:16:19;;;;;;;;;;;11.30;99.90;;;;;;5108536;28;19994;-66
2022/12/26 13:19:00;;;;;;;;;;;11.30;99.90;;;;;;5086217;28;19930;-66
2022/12/26 13:21:26;;;;;;;;;;;11.20;99.90;;;;;;5083451;28;19973;-66
2022/12/26 13:26:48;;;;;;;;;;;11.30;99.90;;;;;;5104246;28;19923;-65
2022/12/26 13:29:15;;;;;;;;;;;11.40;99.90;;;;;;5110594;28;19965;-68
2022/12/26 13:31:41;;;;;;;;;;;11.40;99.90;;;;;;5109732;28;19998;-66
2022/12/26 13:34:08;;;;;;;;;;;11.50;99.90;;;;;;5089309;28;20003;-66
2022/12/26 13:36:38;;;;;;;;;;;11.40;99.90;;;;;;5077406;28;19930;-66
2022/12/26 13:39:23;;;;;;;;;;;11.40;99.90;;;;;;5079923;28;19958;-65
2022/12/26 13:44:39;;;;;;;;;;;11.40;99.90;;;;;;5097026;28;20609;-68
2022/12/26 13:47:04;;;;;;;;;;;11.30;99.90;;;;;;5092921;28;19916;-67
2022/12/26 13:49:38;;;;;;;;;;;11.40;99.90;;;;;;5097995;28;20003;-65
2022/12/26 13:52:10;;;;;;;;;;;11.30;99.90;;;;;;5088414;28;19916;-67
2022/12/26 13:54:36;;;;;;;;;;;11.30;99.90;;;;;;5109630;28;19915;-67
2022/12/26 13:57:11;;;;;;;;;;;11.30;99.90;;;;;;5091499;28;19912;-67
2022/12/26 13:59:42;;;;;;;;;;;11.20;99.90;;;;;;5082290;28;20033;-67
2022/12/26 14:02:28;;;;;;;;;;;11.20;99.90;;;;;;5079774;28;19916;-67
2022/12/26 14:05:17;;;;;;;;;;;11.20;99.90;;;;;;5099250;28;20406;-68
2022/12/26 14:07:54;;;;;;;;;;;11.20;99.90;;;;;;5027130;28;19928;-68
2022/12/26 14:10:45;;;;;;;;;;;11.20;99.90;;;;;;5086438;28;20019;-67
2022/12/26 14:13:30;;;;;;;;;;;11.10;99.90;;;;;;5077096;28;20241;-67
2022/12/26 14:16:04;;;;;;;;;;;11.10;99.90;;;;;;5096833;28;20007;-67
2022/12/26 14:18:38;;;;;;;;;;;11.10;99.90;;;;;;5088912;28;19956;-68
2022/12/26 14:21:27;;;;;;;;;;;11.10;99.90;;;;;;5095398;28;20015;-67
2022/12/26 14:23:55;;;;;;;;;;;11.10;99.90;;;;;;5071987;28;20535;-69
2022/12/26 14:26:43;;;;;;;;;;;11.20;99.90;;;;;;5091587;28;19916;-68
2022/12/26 14:29:08;;;;;;;;;;;11.20;99.90;;;;;;5082836;28;19916;-67
2022/12/26 14:31:47;;;;;;;;;;;11.20;99.90;;;;;;5107361;28;19926;-66
2022/12/26 14:34:18;;;;;;;;;;;11.20;99.90;;;;;;5084108;28;19927;-67
2022/12/26 14:37:03;;;;;;;;;;;11.10;99.90;;;;;;5097177;28;20489;-69
2022/12/26 14:39:44;;;;;;;;;;;11.00;99.90;;;;;;5108780;28;19930;-69
2022/12/26 14:45:02;;;;;;;;;;;10.80;99.90;;;;;;5088777;28;20045;-69
2022/12/26 14:47:34;;;;;;;;;;;10.70;99.90;;;;;;5086043;28;19915;-69
2022/12/26 14:50:20;;;;;;;;;;;10.60;99.90;;;;;;5106181;28;20068;-68
2022/12/26 14:52:46;;;;;;;;;;;10.50;99.90;;;;;;5088307;28;19927;-66
2022/12/26 14:55:31;;;;;;;;;;;10.30;99.90;;;;;;5086096;28;19913;-66
2022/12/26 14:57:56;;;;;;;;;;;10.00;99.90;;;;;;5099147;28;19920;-68
2022/12/26 15:00:22;;;;;;;;;;;9.70;99.90;;;;;;5084887;28;19927;-68
2022/12/26 15:02:57;;;;;;;;;;;9.60;99.90;;;;;;5096973;28;19998;-68
2022/12/26 15:05:34;;;;;;;;;;;9.60;99.90;;;;;;5086744;28;20067;-67
2022/12/26 15:08:12;;;;;;;;;;;9.60;99.90;;;;;;5083724;28;19920;-68
2022/12/26 15:10:46;;;;;;;;;;;9.50;99.90;;;;;;5101117;28;19961;-68
2022/12/26 15:13:17;;;;;;;;;;;9.40;99.90;;;;;;5095881;28;19947;-68
2022/12/26 15:15:46;;;;;;;;;;;9.30;99.90;;;;;;5087703;28;19923;-68
2022/12/26 15:18:24;;;;;;;;;;;9.20;99.90;;;;;;5107443;28;19915;-68
2022/12/26 15:20:49;;;;;;;;;;;9.10;99.90;;;;;;5109225;28;19950;-68
2022/12/26 15:23:24;;;;;;;;;;;9.00;99.90;;;;;;5087836;28;20006;-68
2022/12/26 15:26:05;;;;;;;;;;;8.90;99.90;;;;;;5104530;28;19917;-68
2022/12/26 15:29:10;;;;;;;;;;;8.90;99.90;;;;;;5090217;28;19916;-68
2022/12/26 15:31:38;;;;;;;;;;;9.00;99.90;;;;;;5029669;28;19917;-68
2022/12/26 15:34:06;;;;;;;;;;;9.00;99.90;;;;;;5048726;28;19943;-68
2022/12/26 15:36:41;;;;;;;;;;;9.00;99.90;;;;;;5065709;28;19924;-68
2022/12/26 15:39:25;;;;;;;;;;;8.90;99.90;;;;;;5103950;28;20392;-68
2022/12/26 15:42:17;;;;;;;;;;;9.00;99.90;;;;;;5102239;28;20462;-68
2022/12/26 15:44:49;;;;;;;;;;;9.00;99.90;;;;;;5105332;28;19943;-68
2022/12/26 15:47:21;;;;;;;;;;;8.90;99.90;;;;;;5071828;28;19918;-66
2022/12/26 15:49:54;;;;;;;;;;;8.60;99.90;;;;;;5107471;28;20011;-67
2022/12/26 15:52:27;;;;;;;;;;;8.50;99.90;;;;;;5071716;28;19915;-67
2022/12/26 15:54:59;;;;;;;;;;;8.40;99.90;;;;;;5078624;28;19958;-67
2022/12/26 15:57:31;;;;;;;;;;;8.40;99.90;;;;;;5107975;28;19916;-68
2022/12/26 16:00:16;;;;;;;;;;;8.30;99.90;;;;;;5098757;28;19926;-67
2022/12/26 16:02:45;;;;;;;;;;;8.20;99.90;;;;;;5108523;28;19943;-68
2022/12/26 16:05:24;;;;;;;;;;;8.00;99.90;;;;;;5091578;28;19916;-67
2022/12/26 16:07:52;;;;;;;;;;;8.00;99.90;;;;;;5091059;28;19912;-68
2022/12/26 16:10:21;;;;;;;;;;;8.00;99.90;;;;;;5091934;28;20280;-67
2022/12/26 16:12:56;;;;;;;;;;;7.90;99.90;;;;;;5096387;28;20478;-66
2022/12/26 16:15:23;;;;;;;;;;;7.80;99.90;;;;;;5110581;28;19916;-68
2022/12/26 16:17:49;;;;;;;;;;;7.80;99.90;;;;;;5103037;28;19915;-66
2022/12/26 16:23:19;;;;;;;;;;;7.70;99.90;;;;;;5099647;28;19912;-67
2022/12/26 16:25:45;;;;;;;;;;;7.80;99.90;;;;;;5106391;28;19922;-68
2022/12/26 16:28:11;;;;;;;;;;;7.80;99.90;;;;;;5077043;28;20003;-67
2022/12/26 16:30:37;;;;;;;;;;;7.70;99.90;;;;;;5092025;28;20010;-67
2022/12/26 16:33:03;;;;;;;;;;;7.70;99.90;;;;;;5089809;28;19923;-67
2022/12/26 16:35:31;;;;;;;;;;;7.70;99.90;;;;;;5090978;28;19962;-68
2022/12/26 16:37:57;;;;;;;;;;;7.70;99.90;;;;;;5095206;28;19934;-68
2022/12/26 16:40:24;;;;;;;;;;;7.60;99.90;;;;;;5098558;28;19920;-68
2022/12/26 16:42:54;;;;;;;;;;;7.70;99.90;;;;;;5077905;28;19915;-67
2022/12/26 16:45:19;;;;;;;;;;;7.60;99.90;;;;;;5093062;28;19992;-68
2022/12/26 16:47:45;;;;;;;;;;;7.60;99.90;;;;;;5093196;28;20341;-68
2022/12/26 16:50:21;;;;;;;;;;;7.60;99.90;;;;;;5110158;28;19916;-68